M I D A S
Marine Information and Data Acquisition System
Tripno 430 of the Zeeleeuw from 2003-02-13 07:17:29 to 2003-02-13 14:59:40
Back to CruiseResearch ActivitiesStationsMapUnderway DataData graphs

EquipmentUnitsComment
TimeDGPSUTC
LatitudeDGPSDM.mWGS84
LongitudeDGPSDM.mWGS84
HeadingGyrodeg 
SOGDGPSknotsSpeed over ground
COGDGPSdegCourse over ground
DepthEcho soundermeters200 kHz
Missing or incorrect values are displayed as -999
Navigation data collected by the RV Zeeleeuw from 2003-02-13 07:17:29 to 2003-02-13 14:59:40
Time Latitude Longitude Heading SOG COG Depth
2003-02-13 07:18:32 51°13.594 2°56.103 115.6 0.1 203.6 -999
2003-02-13 07:19:32 51°13.603 2°56.069 115.1 2.9 292.3 -999
2003-02-13 07:20:32 51°13.628 2°55.974 121.1 3.9 295.4 -999
2003-02-13 07:21:32 51°13.662 2°55.885 125 3.1 302.7 -999
2003-02-13 07:22:32 51°13.675 2°55.845 107.4 2.6 290.7 -999
2003-02-13 07:23:32 51°13.684 2°55.755 89.6 3.4 272 -999
2003-02-13 07:24:32 51°13.69 2°55.724 47.5 0.9 25 -999
2003-02-13 07:25:31 51°13.725 2°55.724 348.6 3.2 346 11.4
2003-02-13 07:26:32 51°13.793 2°55.671 333.9 5.2 331 -999
2003-02-13 07:27:32 51°13.886 2°55.595 339.1 7.1 335.1 -999
2003-02-13 07:28:31 51°14.012 2°55.507 343.2 9 338.7 10.9
2003-02-13 07:29:32 51°14.155 2°55.405 338.3 9.3 334.3 -999
2003-02-13 07:30:32 51°14.277 2°55.256 319.1 9.3 315.3 -999
2003-02-13 07:31:31 51°14.378 2°55.073 320.2 9.3 314.3 11.3
2003-02-13 07:32:32 51°14.498 2°54.908 317.5 9.4 316.2 11
2003-02-13 07:33:31 51°14.621 2°54.73 321.8 11.2 319.6 10.6
2003-02-13 07:34:31 51°14.73 2°54.473 285.5 11.8 284.8 10.9
2003-02-13 07:35:31 51°14.754 2°54.161 285.9 12.1 282.9 11.2
2003-02-13 07:36:31 51°14.818 2°53.852 292.7 12.3 289.9 10.9
2003-02-13 07:37:31 51°14.881 2°53.544 291.6 12.2 287.5 10.9
2003-02-13 07:38:31 51°14.949 2°53.219 292.7 13.5 289 11.5
2003-02-13 07:39:31 51°15.023 2°52.872 292.8 13.9 288.9 11.7
2003-02-13 07:40:31 51°15.099 2°52.522 293 14 289.1 12.1
2003-02-13 07:41:31 51°15.176 2°52.17 292.9 14.1 289.3 12.7
2003-02-13 07:42:31 51°15.251 2°51.816 288.4 14.1 285.6 13.2
2003-02-13 07:43:31 51°15.268 2°51.446 268.5 14 266.7 13.6
2003-02-13 07:44:32 51°15.235 2°51.073 262.7 14 259.8 13.8
2003-02-13 07:45:31 51°15.197 2°50.712 262.8 14 260.2 14
2003-02-13 07:46:31 51°15.158 2°50.346 263.5 14 260.3 14.1
2003-02-13 07:47:31 51°15.12 2°49.98 263.6 14 260.9 14.3
2003-02-13 07:48:31 51°15.083 2°49.615 263.4 14 260.7 14.3
2003-02-13 07:49:31 51°15.046 2°49.248 263.3 13.9 260.9 14.2
2003-02-13 07:50:31 51°15.009 2°48.881 264.4 14 261.3 14.1
2003-02-13 07:51:31 51°14.972 2°48.517 264.1 13.9 261.5 14.1
2003-02-13 07:52:31 51°14.935 2°48.153 264.1 13.9 260.6 14.3
2003-02-13 07:53:31 51°14.899 2°47.788 264.5 13.9 261.5 14.5
2003-02-13 07:54:31 51°14.865 2°47.423 264.2 13.9 261.5 14.5
2003-02-13 07:55:31 51°14.829 2°47.059 264.2 13.9 260.5 13.5
2003-02-13 07:56:31 51°14.792 2°46.697 264.4 13.8 261 11.7
2003-02-13 07:57:31 51°14.754 2°46.337 264.1 13.7 260.6 10.5
2003-02-13 07:58:31 51°14.72 2°45.976 264.9 13.8 261.3 10.2
2003-02-13 07:59:31 51°14.684 2°45.613 265.8 13.9 262 11.3
2003-02-13 08:00:31 51°14.647 2°45.246 264.1 14 260.7 12.9
2003-02-13 08:01:31 51°14.61 2°44.88 264.2 13.9 260.7 14.4
2003-02-13 08:02:31 51°14.572 2°44.516 262.8 13.9 259.8 15.7
2003-02-13 08:03:31 51°14.53 2°44.15 262.8 14.1 259.4 16.9
2003-02-13 08:04:31 51°14.487 2°43.785 261.9 13.9 259 17.7
2003-02-13 08:05:31 51°14.443 2°43.423 262.7 14 259.8 18
2003-02-13 08:06:31 51°14.398 2°43.061 261.8 13.9 258.1 18.6
2003-02-13 08:07:31 51°14.356 2°42.699 261.5 13.9 259.3 18.9
2003-02-13 08:08:31 51°14.313 2°42.338 260.7 13.9 258.3 18.8
2003-02-13 08:09:31 51°14.259 2°41.979 259.5 13.9 256.2 18.9
2003-02-13 08:10:31 51°14.203 2°41.624 257.3 13.7 254.9 18.1
2003-02-13 08:11:31 51°14.148 2°41.385 245.6 7.1 244.2 17.8
2003-02-13 08:12:31 51°14.1 2°41.263 241.5 4.6 239.4 17.8
2003-02-13 08:13:31 51°14.092 2°41.17 284.5 3.2 283.8 17.5
2003-02-13 08:14:31 51°14.121 2°41.113 323.1 2.6 322.5 17
2003-02-13 08:15:31 51°14.137 2°41.099 346.2 0.6 336.6 16.7
2003-02-13 08:16:31 51°14.145 2°41.094 347.9 0.6 333.9 16.7
2003-02-13 08:17:31 51°14.154 2°41.087 346.9 0.7 337.2 16.6
2003-02-13 08:18:31 51°14.168 2°41.078 344.4 0.9 337.9 16.7
2003-02-13 08:19:31 51°14.184 2°41.07 341.1 1.1 341.8 16.4
2003-02-13 08:20:31 51°14.202 2°41.06 338.3 1.2 340.9 16.4
2003-02-13 08:21:31 51°14.221 2°41.048 337 1.3 339.4 16.1
2003-02-13 08:22:31 51°14.242 2°41.035 333.2 1.4 333.7 15.7
2003-02-13 08:23:31 51°14.267 2°40.978 272.3 3.7 282.7 15.8
2003-02-13 08:24:31 51°14.228 2°40.914 203.7 2.5 201.6 16.9
2003-02-13 08:25:31 51°14.208 2°40.905 187.8 1 191.4 17.2
2003-02-13 08:26:31 51°14.193 2°40.902 180.8 0.9 181.7 17.2
2003-02-13 08:27:31 51°14.177 2°40.903 175.1 0.9 173.3 17
2003-02-13 08:28:31 51°14.162 2°40.909 170.2 0.9 163.8 16.7
2003-02-13 08:29:31 51°14.148 2°40.917 166.2 0.9 158.8 16.4
2003-02-13 08:30:31 51°14.134 2°40.927 163.1 0.9 153.4 16.3
2003-02-13 08:31:31 51°14.121 2°40.938 161 0.9 152.5 16.3
2003-02-13 08:32:31 51°14.109 2°40.95 157.3 0.9 147.3 16.3
2003-02-13 08:33:31 51°14.096 2°40.964 151.1 0.9 139.3 16.7
2003-02-13 08:34:32 51°14.086 2°40.981 143.4 0.8 132 16.8
2003-02-13 08:35:31 51°14.078 2°40.997 137.8 0.8 125.2 17.1
2003-02-13 08:36:32 51°14.071 2°41.014 139.3 0.8 122.5 17.2
2003-02-13 08:37:31 51°14.063 2°41.03 147.2 0.8 132.1 17.2
2003-02-13 08:38:31 51°14.053 2°41.045 152.4 0.9 137.6 17.6
2003-02-13 08:39:31 51°14.04 2°41.061 161.8 1.1 149.3 17.8
2003-02-13 08:40:31 51°14.021 2°41.072 176.3 1.3 165.7 18
2003-02-13 08:41:31 51°13.999 2°41.073 193.3 1.4 184.1 18
2003-02-13 08:42:31 51°13.978 2°41.061 212.6 1.4 212 18.1
2003-02-13 08:43:31 51°13.961 2°41.032 231.7 1.6 235.9 18.2
2003-02-13 08:44:31 51°13.952 2°40.99 254.5 1.7 263 17.7
2003-02-13 08:45:31 51°13.957 2°40.943 280.9 1.9 291 17.5
2003-02-13 08:46:31 51°13.976 2°40.901 308 2 314.3 17.4
2003-02-13 08:47:31 51°14.006 2°40.874 333.6 2.1 338.1 17.1
2003-02-13 08:48:31 51°14.041 2°40.864 356.5 2.2 356.6 16.5
2003-02-13 08:49:31 51°14.085 2°40.868 358.5 3.5 0.6 16.7
2003-02-13 08:50:31 51°14.175 2°40.799 329.5 8.1 329.6 16.5
2003-02-13 08:51:32 51°14.314 2°40.677 334.7 9.7 333.9 15.8
2003-02-13 08:52:31 51°14.482 2°40.54 333.6 13.5 331.5 15.6
2003-02-13 08:53:31 51°14.686 2°40.373 336.8 13.8 335 14.2
2003-02-13 08:54:31 51°14.896 2°40.218 337.6 13.9 335.7 15.1
2003-02-13 08:55:31 51°15.107 2°40.063 337.5 14 335.3 15.7
2003-02-13 08:56:31 51°15.319 2°39.907 337.4 14.1 335.5 18.7
2003-02-13 08:57:32 51°15.534 2°39.749 337.3 14.1 335.5 20.6
2003-02-13 08:58:31 51°15.742 2°39.596 337.3 14 335.4 21.7
2003-02-13 08:59:31 51°15.956 2°39.442 337.4 14.1 335.6 21.5
2003-02-13 09:00:32 51°16.175 2°39.282 337.7 14.2 335.9 19.9
2003-02-13 09:01:32 51°16.395 2°39.145 340.5 14.1 338.9 15.9
2003-02-13 09:02:32 51°16.605 2°39.017 340.1 12.5 338.9 13.1
2003-02-13 09:03:31 51°16.73 2°39.016 16.3 5.8 17.3 12.7
2003-02-13 09:04:31 51°16.795 2°39 312 3.3 320.3 12.2
2003-02-13 09:05:31 51°16.798 2°38.934 241.7 2.6 236.1 11.8
2003-02-13 09:06:32 51°16.756 2°38.917 189.7 2.5 175.6 11.9
2003-02-13 09:07:31 51°16.737 2°38.927 182.7 1.1 154.7 12.2
2003-02-13 09:08:32 51°16.72 2°38.941 170.5 1.1 148.1 12.2
2003-02-13 09:09:32 51°16.705 2°38.957 165.7 1 144.4 12.3
2003-02-13 09:10:32 51°16.692 2°38.973 165.4 0.9 138.6 12.5
2003-02-13 09:11:32 51°16.682 2°38.988 168.7 0.9 140 12.8
2003-02-13 09:12:32 51°16.671 2°39.001 171.4 0.8 142.7 13
2003-02-13 09:13:32 51°16.662 2°39.012 175.2 0.7 140.8 13
2003-02-13 09:14:32 51°16.652 2°39.025 176.9 0.7 142.2 13.2
2003-02-13 09:15:32 51°16.643 2°39.036 179.5 0.7 143.7 13.4
2003-02-13 09:16:32 51°16.634 2°39.047 178.9 0.7 144.8 13.4
2003-02-13 09:17:31 51°16.625 2°39.057 179.9 0.7 144.4 13.5
2003-02-13 09:18:32 51°16.616 2°39.066 180.7 0.6 145.6 13.6
2003-02-13 09:19:31 51°16.608 2°39.076 181.3 0.6 146.9 13.8
2003-02-13 09:20:31 51°16.599 2°39.086 183.2 0.6 145.2 13.9
2003-02-13 09:21:32 51°16.59 2°39.096 183.6 0.6 145.5 14.2
2003-02-13 09:22:32 51°16.582 2°39.105 183.8 0.6 144.3 14.4
2003-02-13 09:23:32 51°16.573 2°39.113 183.8 0.6 146.8 14.5
2003-02-13 09:24:32 51°16.565 2°39.122 183.1 0.6 143.1 14.5
2003-02-13 09:25:31 51°16.557 2°39.132 183.2 0.6 144.1 14.8
2003-02-13 09:26:32 51°16.549 2°39.142 182.4 0.6 141.1 14.8
2003-02-13 09:27:32 51°16.541 2°39.151 182.7 0.6 145.2 15
2003-02-13 09:28:32 51°16.533 2°39.161 182.4 0.6 146.5 15.1
2003-02-13 09:29:31 51°16.525 2°39.17 180.5 0.7 147.2 15.4
2003-02-13 09:30:31 51°16.514 2°39.179 182.6 0.9 154.2 15.8
2003-02-13 09:31:31 51°16.499 2°39.189 185.7 1 161.4 16
2003-02-13 09:32:32 51°16.482 2°39.196 191.8 1 169 16
2003-02-13 09:33:31 51°16.464 2°39.198 202.4 1.3 182.5 16.2
2003-02-13 09:34:31 51°16.427 2°39.22 148.8 3.4 140.3 16.6
2003-02-13 09:35:32 51°16.425 2°39.349 70.8 6.1 69.6 18.6
2003-02-13 09:36:32 51°16.496 2°39.511 57.2 8.1 52.7 20.8
2003-02-13 09:37:32 51°16.613 2°39.747 58.7 12.4 52.5 20.9
2003-02-13 09:38:32 51°16.743 2°40.013 58.2 12.8 52.2 22
2003-02-13 09:39:32 51°16.874 2°40.283 58.3 12.9 52.4 23.2
2003-02-13 09:40:32 51°17.002 2°40.557 62.9 12.8 56.2 24.5
2003-02-13 09:41:31 51°17.114 2°40.837 63.5 12.8 57 25.1
2003-02-13 09:42:32 51°17.206 2°41.072 68.2 8.6 60.1 25.5
2003-02-13 09:43:32 51°17.245 2°41.225 79.8 5.1 69.4 25.9
2003-02-13 09:44:31 51°17.263 2°41.291 92.1 0.7 15.6 26
2003-02-13 09:45:32 51°17.274 2°41.292 106.5 0.6 358.7 25.8
2003-02-13 09:46:32 51°17.285 2°41.291 120.6 0.6 5.7 26
2003-02-13 09:47:32 51°17.288 2°41.308 120.1 0.9 86.8 25.8
2003-02-13 09:48:32 51°17.288 2°41.337 109.4 1.2 82.2 25.7
2003-02-13 09:49:31 51°17.293 2°41.366 95.3 1.1 68.3 25.9
2003-02-13 09:50:31 51°17.3 2°41.385 93.7 0.6 52.4 26.1
2003-02-13 09:51:31 51°17.306 2°41.393 99.6 0.4 16.1 26.2
2003-02-13 09:52:32 51°17.314 2°41.391 113.4 0.5 342.6 26.1
2003-02-13 09:53:32 51°17.322 2°41.386 130.8 0.6 350.4 25.9
2003-02-13 09:54:31 51°17.332 2°41.384 146.8 0.6 354.1 25.9
2003-02-13 09:55:32 51°17.34 2°41.383 165.7 0.3 9 26.1
2003-02-13 09:56:32 51°17.342 2°41.387 176.5 0.2 115.7 25.9
2003-02-13 09:57:32 51°17.338 2°41.393 180.6 0.3 138.1 26.1
2003-02-13 09:58:32 51°17.332 2°41.399 184.8 0.4 151.4 25.9
2003-02-13 09:59:31 51°17.325 2°41.401 192.9 0.4 174.2 25.9
2003-02-13 10:00:32 51°17.317 2°41.399 204.1 0.5 198.6 26
2003-02-13 10:01:32 51°17.309 2°41.391 211.2 0.6 214.5 25.9
2003-02-13 10:02:32 51°17.301 2°41.384 203.8 0.6 202.5 25.7
2003-02-13 10:03:31 51°17.292 2°41.377 211.2 0.6 213.6 25.9
2003-02-13 10:04:32 51°17.284 2°41.365 214.9 0.6 227.1 25.9
2003-02-13 10:05:32 51°17.277 2°41.357 206.3 0.5 211.8 25.8
2003-02-13 10:06:31 51°17.272 2°41.352 203.5 0.3 215.1 25.8
2003-02-13 10:07:31 51°17.269 2°41.35 201.4 0.2 202.8 25.8
2003-02-13 10:08:31 51°17.267 2°41.349 198.9 0.1 196.9 25.9
2003-02-13 10:09:32 51°17.254 2°41.335 227 1.8 228.3 25.8
2003-02-13 10:10:31 51°17.249 2°41.285 260.9 2 273.5 25.8
2003-02-13 10:11:31 51°17.26 2°41.233 282.8 2.2 298.1 25.8
2003-02-13 10:12:32 51°17.291 2°41.193 323.3 2.5 333.2 26
2003-02-13 10:13:31 51°17.35 2°41.192 26.3 4.9 19.5 25.6
2003-02-13 10:14:31 51°17.378 2°41.317 128.6 5.4 109.7 25.9
2003-02-13 10:15:32 51°17.304 2°41.424 154.9 5.1 143.4 25.9
2003-02-13 10:16:31 51°17.251 2°41.463 176.5 2.9 162.5 26
2003-02-13 10:17:32 51°17.212 2°41.47 193.1 1.9 183.2 25.9
2003-02-13 10:18:32 51°17.186 2°41.461 200.3 1.5 194.8 25.9
2003-02-13 10:19:31 51°17.166 2°41.45 205.9 1.2 203.1 25.9
2003-02-13 10:20:32 51°17.15 2°41.435 212.7 1 214.8 25.9
2003-02-13 10:21:31 51°17.139 2°41.418 219.4 1 227.3 25.5
2003-02-13 10:22:31 51°17.131 2°41.398 231.8 0.9 246.1 25.6
2003-02-13 10:23:32 51°17.129 2°41.371 252.2 1.1 272.8 25.6
2003-02-13 10:24:31 51°17.143 2°41.325 299.5 2.7 305.4 25.7
2003-02-13 10:25:32 51°17.199 2°41.296 1.9 3.9 359 25.7
2003-02-13 10:26:32 51°17.268 2°41.346 38 5.3 31.3 25.9
2003-02-13 10:27:30 51°17.433 2°41.489 38.5 13.9 32.3 25.8
2003-02-13 10:28:31 51°17.635 2°41.722 41.1 14.9 36 25.8
2003-02-13 10:29:32 51°17.838 2°41.959 42.5 14.9 36.5 25.9
2003-02-13 10:30:32 51°18.027 2°42.213 47.1 14.9 42 26.2
2003-02-13 10:31:32 51°18.213 2°42.477 46.6 14.9 41.9 25.9
2003-02-13 10:32:32 51°18.398 2°42.741 46.5 14.9 41.7 25.7
2003-02-13 10:33:31 51°18.56 2°43.027 60.3 14.8 55 25.1
2003-02-13 10:34:32 51°18.687 2°43.368 73 14.6 66 25
2003-02-13 10:35:32 51°18.725 2°43.622 67.6 8.1 64.6 24.5
2003-02-13 10:36:31 51°18.81 2°43.743 28.3 6.7 28.1 24.3
2003-02-13 10:37:32 51°18.903 2°43.807 21 5.1 21.6 24.3
2003-02-13 10:38:32 51°18.935 2°43.826 348.5 0.6 45.9 24.2
2003-02-13 10:39:31 51°18.966 2°43.789 281.7 2 310.7 24.5
2003-02-13 10:40:32 51°18.979 2°43.787 256.3 0.6 355.5 24.5
2003-02-13 10:41:32 51°18.986 2°43.785 235 0.3 345.7 24.4
2003-02-13 10:42:32 51°18.99 2°43.785 217.5 0.1 7.8 24.5
2003-02-13 10:43:32 51°18.991 2°43.788 202.7 0.2 57.5 24.3
2003-02-13 10:44:32 51°18.994 2°43.794 191.4 0.3 52.6 24.4
2003-02-13 10:45:32 51°18.998 2°43.802 181.9 0.4 57.4 24.4
2003-02-13 10:46:32 51°19.003 2°43.811 176.9 0.4 56.5 24.5
2003-02-13 10:47:32 51°19.006 2°43.82 175.7 0.4 55.2 24.5
2003-02-13 10:48:32 51°19.01 2°43.829 174.8 0.4 56.8 24.3
2003-02-13 10:49:32 51°19.013 2°43.839 174.1 0.4 64.1 24.4
2003-02-13 10:50:32 51°19.015 2°43.85 170.5 0.4 71.5 24.4
2003-02-13 10:51:32 51°19.016 2°43.86 171.2 0.4 88.3 24.3
2003-02-13 10:52:32 51°19.015 2°43.873 172.6 0.5 105.6 24.3
2003-02-13 10:53:31 51°19.013 2°43.885 173 0.5 114.4 24.2
2003-02-13 10:54:32 51°19.009 2°43.898 175.6 0.5 116 24.2
2003-02-13 10:55:32 51°19.004 2°43.91 179.5 0.5 122 24.2
2003-02-13 10:56:32 51°18.998 2°43.921 184.8 0.5 132.7 24.1
2003-02-13 10:57:32 51°18.993 2°43.929 189.3 0.5 143.3 24.1
2003-02-13 10:58:32 51°18.987 2°43.937 192.3 0.4 148.4 24.1
2003-02-13 10:59:32 51°18.98 2°43.941 197.8 0.4 165.4 24
2003-02-13 11:00:32 51°18.975 2°43.942 201.7 0.4 171.3 23.9
2003-02-13 11:01:31 51°18.966 2°43.94 216.2 0.6 204.8 24
2003-02-13 11:02:32 51°18.958 2°43.924 239.4 0.9 245.3 24
2003-02-13 11:03:32 51°18.96 2°43.895 272.7 1.3 293.9 24.2
2003-02-13 11:04:31 51°18.977 2°43.867 305.8 1.5 325.2 24.2
2003-02-13 11:05:31 51°19.003 2°43.851 331.6 1.7 346.4 24.1
2003-02-13 11:06:32 51°19.033 2°43.843 344.3 1.9 355.3 24.2
2003-02-13 11:07:32 51°19.066 2°43.843 354.9 2 2.9 24.1
2003-02-13 11:08:32 51°19.099 2°43.85 6.8 2 10.7 24.1
2003-02-13 11:09:32 51°19.131 2°43.863 13.8 2 14.3 24.3
2003-02-13 11:10:32 51°19.163 2°43.878 19.5 2 19.1 24.4
2003-02-13 11:11:32 51°19.195 2°43.899 27 2.1 22.4 24.5
2003-02-13 11:12:32 51°19.227 2°43.922 27.6 2.1 26.1 24.4
2003-02-13 11:13:32 51°19.26 2°43.946 25.8 2.2 24 24.7
2003-02-13 11:14:32 51°19.293 2°43.968 17.8 2.2 20 24.7
2003-02-13 11:15:32 51°19.328 2°43.98 356.1 2.2 7.6 24.6
2003-02-13 11:16:32 51°19.364 2°43.976 333.7 2.2 350.5 24.8
2003-02-13 11:17:32 51°19.397 2°43.957 313 2 332.8 24.8
2003-02-13 11:18:31 51°19.421 2°43.927 291.1 1.8 313.4 25
2003-02-13 11:19:32 51°19.437 2°43.886 279.7 1.9 296.6 25.2
2003-02-13 11:20:32 51°19.449 2°43.83 270.6 2.4 283.1 25.3
2003-02-13 11:21:32 51°19.454 2°43.764 264.1 2.6 274.9 25.4
2003-02-13 11:22:32 51°19.453 2°43.693 254 2.6 263.8 25.5
2003-02-13 11:23:32 51°19.442 2°43.627 243.8 2.6 250.6 25.6
2003-02-13 11:24:31 51°19.427 2°43.563 244.6 2.7 249.9 25.8
2003-02-13 11:25:31 51°19.414 2°43.494 248.3 2.8 254.4 25.8
2003-02-13 11:26:31 51°19.403 2°43.422 249.1 2.8 256.1 25.7
2003-02-13 11:27:32 51°19.39 2°43.35 246.8 2.8 253.6 25.7
2003-02-13 11:28:32 51°19.377 2°43.279 247.5 2.8 255.1 25.4
2003-02-13 11:29:32 51°19.365 2°43.207 247.6 2.8 255.6 25.4
2003-02-13 11:30:32 51°19.353 2°43.134 248.2 2.8 255.5 25.8
2003-02-13 11:31:32 51°19.341 2°43.061 247.2 2.8 254.5 25.8
2003-02-13 11:32:31 51°19.33 2°42.987 248.9 2.9 256.3 25.7
2003-02-13 11:33:32 51°19.319 2°42.913 250.4 2.9 258.6 25.3
2003-02-13 11:34:32 51°19.308 2°42.84 247.5 2.9 256.3 25.5
2003-02-13 11:35:31 51°19.294 2°42.762 247.2 3.2 252.4 25.7
2003-02-13 11:36:32 51°19.272 2°42.681 244.2 3.3 242.9 25.3
2003-02-13 11:37:32 51°19.249 2°42.599 250.9 3.4 249.2 25.5
2003-02-13 11:38:31 51°19.23 2°42.517 250.6 3.4 249.1 25.2
2003-02-13 11:39:31 51°19.21 2°42.433 249.5 3.4 248.1 25
2003-02-13 11:40:31 51°19.189 2°42.349 248.9 3.4 247.5 24.8
2003-02-13 11:41:31 51°19.167 2°42.267 248.2 3.4 247 24.7
2003-02-13 11:42:31 51°19.145 2°42.185 248.9 3.4 247.9 24.2
2003-02-13 11:43:30 51°19.124 2°42.104 248.2 3.4 247.5 24.3
2003-02-13 11:44:31 51°19.098 2°42.007 248.2 4.2 246.3 23.9
2003-02-13 11:45:31 51°19.07 2°41.901 248.6 4.4 247 23.2
2003-02-13 11:46:31 51°19.041 2°41.791 248.8 4.5 246.8 22.6
2003-02-13 11:47:31 51°19.009 2°41.674 248.9 5.5 247 22
2003-02-13 11:48:31 51°18.962 2°41.503 248.8 7.7 246.3 20.8
2003-02-13 11:49:30 51°18.91 2°41.312 248.9 8.1 246.9 19.5
2003-02-13 11:50:31 51°18.854 2°41.111 248.3 8.2 245.9 18.5
2003-02-13 11:51:32 51°18.797 2°40.911 244.2 8.1 242.6 19.7
2003-02-13 11:52:30 51°18.725 2°40.785 213.2 5.1 210 20.9
2003-02-13 11:53:32 51°18.672 2°40.761 191.4 1.7 177.1 21.1
2003-02-13 11:54:32 51°18.656 2°40.773 175.2 1 151.2 21.4
2003-02-13 11:55:32 51°18.633 2°40.782 195.9 1.9 179.5 21.3
2003-02-13 11:56:31 51°18.608 2°40.753 247.2 2.3 242.5 14.7
2003-02-13 11:57:31 51°18.608 2°40.719 271.2 1.3 281.9 18.7
2003-02-13 11:58:31 51°18.614 2°40.685 273.4 1.3 287.4 20.4
2003-02-13 11:59:31 51°18.619 2°40.654 270.2 1.2 282.1 20.8
2003-02-13 12:00:31 51°18.625 2°40.626 278.8 1.1 293 18.3
2003-02-13 12:01:31 51°18.635 2°40.607 295 0.8 316.8 14.1
2003-02-13 12:02:31 51°18.645 2°40.598 309.8 0.7 340 13.1
2003-02-13 12:03:30 51°18.657 2°40.595 320.2 0.7 349.2 12.7
2003-02-13 12:04:31 51°18.67 2°40.591 326.7 0.8 353.4 12.6
2003-02-13 12:05:31 51°18.708 2°40.594 17.8 4.3 14.5 15.9
2003-02-13 12:06:30 51°18.751 2°40.686 87.4 3.7 75.8 18.2
2003-02-13 12:07:31 51°18.754 2°40.727 130.4 0.8 92.5 21.2
2003-02-13 12:08:31 51°18.749 2°40.747 144.5 0.9 120.8 21.2
2003-02-13 12:09:31 51°18.739 2°40.769 138.9 1.1 123.9 20.9
2003-02-13 12:10:31 51°18.729 2°40.795 135.4 1.2 121.4 20
2003-02-13 12:11:31 51°18.718 2°40.824 133.9 1.3 121.7 18.5
2003-02-13 12:12:31 51°18.706 2°40.857 131.7 1.5 120.2 16
2003-02-13 12:13:31 51°18.695 2°40.891 131.8 1.5 120 20
2003-02-13 12:14:32 51°18.636 2°40.904 215.6 4.9 205.5 19.2
2003-02-13 12:15:31 51°18.611 2°40.825 266.9 1.9 265.4 19.7
2003-02-13 12:16:32 51°18.615 2°40.805 296.1 0.7 301.7 20.4
2003-02-13 12:17:32 51°18.625 2°40.787 305.5 1 313.7 20.9
2003-02-13 12:18:31 51°18.637 2°40.768 308 1.1 318.2 20.9
2003-02-13 12:19:32 51°18.651 2°40.749 306.4 1.1 315.6 17.7
2003-02-13 12:20:32 51°18.664 2°40.726 304.1 1.2 313 16.6
2003-02-13 12:21:32 51°18.676 2°40.702 300.7 1.2 307.1 18.5
2003-02-13 12:22:32 51°18.689 2°40.677 297.5 1.2 309.3 19.4
2003-02-13 12:23:32 51°18.7 2°40.651 292.3 1.2 302.3 19.5
2003-02-13 12:24:31 51°18.709 2°40.624 286.5 1.2 296.8 18.4
2003-02-13 12:25:30 51°18.701 2°40.566 223.3 2.7 224.8 14.1
2003-02-13 12:26:30 51°18.679 2°40.536 223.3 1.5 225.1 16.5
2003-02-13 12:27:30 51°18.659 2°40.522 188.3 1.3 183.6 16.8
2003-02-13 12:28:31 51°18.639 2°40.531 159.6 1.3 150.4 17.6
2003-02-13 12:29:30 51°18.623 2°40.552 140.5 1.3 132.9 17.7
2003-02-13 12:30:31 51°18.609 2°40.579 134.1 1.3 128.1 15.9
2003-02-13 12:31:31 51°18.597 2°40.606 124.6 1.2 119.5 14.1
2003-02-13 12:32:32 51°18.588 2°40.65 102.3 3.1 100.8 21
2003-02-13 12:33:31 51°18.636 2°40.792 58.4 10.3 54.3 20.3
2003-02-13 12:34:32 51°18.739 2°41.103 74.1 14 69.5 17.3
2003-02-13 12:35:30 51°18.81 2°41.453 76.8 14.4 72.3 18.4
2003-02-13 12:36:30 51°18.884 2°41.817 76.2 14.4 72.6 22.3
2003-02-13 12:37:32 51°18.959 2°42.194 76.4 14.4 72.5 23.7
2003-02-13 12:38:32 51°19.034 2°42.556 77 14.3 71.6 24.4
2003-02-13 12:39:32 51°19.111 2°42.918 76.8 14.4 71.3 24.7
2003-02-13 12:40:32 51°19.188 2°43.28 76.7 14.4 71.1 24.8
2003-02-13 12:41:32 51°19.265 2°43.642 76.2 14.4 71.2 20.6
2003-02-13 12:42:32 51°19.342 2°44.004 76.3 14.4 71.4 19.8
2003-02-13 12:43:31 51°19.408 2°44.364 79.1 14.4 74.4 19.1
2003-02-13 12:44:31 51°19.471 2°44.733 79.3 14.4 74.6 18
2003-02-13 12:45:32 51°19.532 2°45.107 81.6 14.3 76.7 13.7
2003-02-13 12:46:30 51°19.585 2°45.46 81.1 14 76.4 9.2
2003-02-13 12:47:30 51°19.637 2°45.827 81.2 14.3 77.1 9.1
2003-02-13 12:48:31 51°19.69 2°46.203 81.2 14.3 77 13.6
2003-02-13 12:49:31 51°19.743 2°46.572 81.6 14.3 77 15
2003-02-13 12:50:32 51°19.799 2°46.949 81.5 14.3 76.9 17
2003-02-13 12:51:31 51°19.847 2°47.268 81.1 10.6 76.7 18.3
2003-02-13 12:52:31 51°19.881 2°47.488 80 6.8 75.3 18.6
2003-02-13 12:53:31 51°19.879 2°47.609 124.1 3.7 108.9 18.8
2003-02-13 12:54:30 51°19.858 2°47.675 107.9 2.4 104.1 19
2003-02-13 12:55:32 51°19.86 2°47.731 78.3 1.9 75.3 19
2003-02-13 12:56:32 51°19.876 2°47.769 46.2 1.6 41.4 19
2003-02-13 12:57:31 51°19.896 2°47.78 10.7 1.2 0.4 19.1
2003-02-13 12:58:32 51°19.916 2°47.769 340 1.3 333.9 18.9
2003-02-13 12:59:32 51°19.937 2°47.749 341.1 1.5 328.9 19
2003-02-13 13:00:32 51°19.958 2°47.733 343.8 1.4 335.7 18.8
2003-02-13 13:01:32 51°19.977 2°47.715 336.5 1.3 327.4 18.8
2003-02-13 13:02:32 51°19.994 2°47.695 330.1 1.2 318.8 18.7
2003-02-13 13:03:32 51°20.01 2°47.673 327.8 1.3 321.7 18.7
2003-02-13 13:04:32 51°20.025 2°47.65 322.5 1.3 315.2 18.7
2003-02-13 13:05:32 51°20.039 2°47.625 317.9 1.3 310.8 18.7
2003-02-13 13:06:32 51°20.052 2°47.598 313.6 1.2 306.6 18.6
2003-02-13 13:07:32 51°20.064 2°47.571 309 1.3 304.1 18.2
2003-02-13 13:08:31 51°20.075 2°47.541 303.8 1.3 299.3 18
2003-02-13 13:09:31 51°20.083 2°47.509 294.6 1.3 286.1 17.9
2003-02-13 13:10:31 51°20.088 2°47.475 286.5 1.3 280.4 17.6
2003-02-13 13:11:31 51°20.091 2°47.438 277.8 1.4 271.8 17.4
2003-02-13 13:12:31 51°20.09 2°47.399 264.4 1.5 262.9 17.2
2003-02-13 13:13:32 51°20.082 2°47.362 240.6 1.4 242.5 17.3
2003-02-13 13:14:31 51°20.066 2°47.336 211.5 1.4 214.9 17.4
2003-02-13 13:15:32 51°20.045 2°47.323 184.9 1.3 193.8 17.3
2003-02-13 13:16:31 51°20.028 2°47.322 163.6 1 172.9 17.4
2003-02-13 13:17:32 51°20.011 2°47.329 145.2 1 159.5 17.3
2003-02-13 13:18:32 51°19.997 2°47.339 132.7 0.9 147.7 17.6
2003-02-13 13:19:31 51°19.987 2°47.352 121.4 0.8 138.2 17.7
2003-02-13 13:20:32 51°19.977 2°47.367 127.1 0.8 140 17.9
2003-02-13 13:21:32 51°19.962 2°47.383 139 1.2 146.3 18.2
2003-02-13 13:22:32 51°19.94 2°47.399 155 1.5 159.5 18.1
2003-02-13 13:23:31 51°19.914 2°47.407 175.4 1.7 175.8 18.1
2003-02-13 13:24:31 51°19.885 2°47.399 199.5 1.8 200 18.2
2003-02-13 13:25:31 51°19.859 2°47.37 226.6 2.1 225.2 18.2
2003-02-13 13:26:31 51°19.844 2°47.321 259.8 2.1 256.2 18.1
2003-02-13 13:27:32 51°19.845 2°47.266 293 2 285.4 17.9
2003-02-13 13:28:32 51°19.86 2°47.224 321.5 1.8 308 17.9
2003-02-13 13:29:32 51°19.88 2°47.194 343.5 1.6 322.7 17.6
2003-02-13 13:30:32 51°19.902 2°47.174 359.8 1.5 336.5 17.3
2003-02-13 13:31:32 51°19.926 2°47.162 7.9 1.6 346.8 17.1
2003-02-13 13:32:32 51°19.952 2°47.154 13.1 1.6 351 17.1
2003-02-13 13:33:32 51°19.983 2°47.154 22.7 2.2 5 16.9
2003-02-13 13:34:32 51°20.017 2°47.168 33.5 2.2 20.1 16.9
2003-02-13 13:35:32 51°20.058 2°47.225 62 3.7 53.1 16.4
2003-02-13 13:36:32 51°20.069 2°47.322 97.6 3.8 93.6 16.8
2003-02-13 13:37:32 51°20.046 2°47.416 119.9 3.8 120.2 17.3
2003-02-13 13:38:31 51°20.002 2°47.491 137.8 4 139.3 17.9
2003-02-13 13:39:32 51°19.946 2°47.554 149.2 4.1 149.1 18.3
2003-02-13 13:40:32 51°19.883 2°47.598 159.1 4.1 160.5 18.3
2003-02-13 13:41:32 51°19.817 2°47.624 165.6 4 167.6 18.6
2003-02-13 13:42:32 51°19.752 2°47.641 177.1 4.1 177.8 18.3
2003-02-13 13:43:32 51°19.685 2°47.637 186.3 4.1 186.4 18.4
2003-02-13 13:44:32 51°19.619 2°47.606 199.9 4.1 200.2 18.4
2003-02-13 13:45:32 51°19.558 2°47.554 213.1 4.2 213.3 18.2
2003-02-13 13:46:32 51°19.507 2°47.477 231.5 4.3 230.3 17.9
2003-02-13 13:47:32 51°19.475 2°47.375 252.2 4.3 250.5 17.9
2003-02-13 13:48:32 51°19.464 2°47.268 270.8 4 267.9 17.9
2003-02-13 13:49:32 51°19.473 2°47.164 291.6 3.9 284.3 18.2
2003-02-13 13:50:32 51°19.496 2°47.071 303.9 3.8 294.6 17.7
2003-02-13 13:51:32 51°19.53 2°46.987 317.7 3.7 309.1 17.7
2003-02-13 13:52:32 51°19.572 2°46.915 326.9 3.7 315.5 17.3
2003-02-13 13:53:32 51°19.62 2°46.855 336.8 3.6 324.9 17.1
2003-02-13 13:54:32 51°19.672 2°46.806 344.3 3.6 331.5 16.6
2003-02-13 13:55:32 51°19.727 2°46.767 350.5 3.5 338 15
2003-02-13 13:56:32 51°19.781 2°46.741 1.2 3.2 347.7 14.8
2003-02-13 13:57:32 51°19.825 2°46.732 15.4 2.3 355.6 15
2003-02-13 13:58:32 51°19.858 2°46.728 19 1.8 355.6 15.2
2003-02-13 13:59:32 51°19.881 2°46.722 20.5 1.2 344.3 15.2
2003-02-13 14:00:32 51°19.896 2°46.71 21.9 0.9 331.5 15.1
2003-02-13 14:01:32 51°19.928 2°46.728 50.4 3.2 37.4 14.1
2003-02-13 14:02:32 51°19.93 2°46.865 115.8 7.8 111.7 15.5
2003-02-13 14:03:32 51°19.828 2°47.054 128.6 9.6 128.7 17.1
2003-02-13 14:04:32 51°19.742 2°47.255 123.4 8.9 122.5 17.8
2003-02-13 14:05:32 51°19.664 2°47.444 124.4 8.3 123.6 18
2003-02-13 14:06:32 51°19.588 2°47.625 124.4 8.2 123.7 18.1
2003-02-13 14:07:32 51°19.512 2°47.803 125 8.1 124.6 17.8
2003-02-13 14:08:32 51°19.435 2°47.979 125.2 8.1 125.5 16.7
2003-02-13 14:09:32 51°19.357 2°48.156 124.5 8.1 124.9 15.2
2003-02-13 14:10:32 51°19.279 2°48.331 125.2 8.1 125.4 14.1
2003-02-13 14:11:32 51°19.202 2°48.506 125.2 8 125.5 12.5
2003-02-13 14:12:32 51°19.123 2°48.68 125.3 8.1 125.4 11.1
2003-02-13 14:13:32 51°19.046 2°48.856 125 8.1 125.1 10.2
2003-02-13 14:14:32 51°18.969 2°49.028 125.1 8 125.4 8.1
2003-02-13 14:15:32 51°18.892 2°49.201 125.2 7.9 125.3 7.7
2003-02-13 14:16:32 51°18.817 2°49.373 125.5 7.9 124.5 6.8
2003-02-13 14:17:32 51°18.741 2°49.543 125.5 7.8 125.3 7
2003-02-13 14:18:32 51°18.665 2°49.714 125.5 7.9 125.5 8
2003-02-13 14:19:32 51°18.588 2°49.883 125 7.9 125.8 9.1
2003-02-13 14:20:32 51°18.512 2°50.053 125 7.9 125.2 10.2
2003-02-13 14:21:32 51°18.435 2°50.224 125.2 8 126.6 10.2
2003-02-13 14:22:32 51°18.356 2°50.393 125.6 8 126.7 10.1
2003-02-13 14:23:32 51°18.276 2°50.562 125 8 126.6 9.8
2003-02-13 14:24:32 51°18.197 2°50.732 124.9 8 126.5 9.3
2003-02-13 14:25:32 51°18.117 2°50.902 125.7 8 127.1 8.7
2003-02-13 14:26:32 51°18.036 2°51.073 125.5 8.1 128 8.2
2003-02-13 14:27:32 51°17.955 2°51.244 124.8 8.1 126.7 7.3
2003-02-13 14:28:32 51°17.874 2°51.414 124.8 7.9 126.9 6.5
2003-02-13 14:29:32 51°17.794 2°51.584 124.9 8 126.7 6.1
2003-02-13 14:30:32 51°17.713 2°51.753 125.2 8 126.9 6
2003-02-13 14:31:32 51°17.628 2°51.916 133.2 8.1 133.7 6.3
2003-02-13 14:32:32 51°17.519 2°52.049 141.6 8.3 144.6 6.6
2003-02-13 14:33:32 51°17.404 2°52.17 149.5 8.4 151.1 6.4
2003-02-13 14:34:32 51°17.272 2°52.253 157.5 8.6 160.4 6.4
2003-02-13 14:35:32 51°17.138 2°52.333 156.2 8.5 159.3 6
2003-02-13 14:36:32 51°17.005 2°52.414 156 8.5 158.8 5.6
2003-02-13 14:37:32 51°16.872 2°52.499 155.6 8.6 158.1 6.1
2003-02-13 14:38:32 51°16.739 2°52.582 156 8.6 159 5.7
2003-02-13 14:39:32 51°16.605 2°52.666 155.3 8.6 158.3 7.2
2003-02-13 14:40:32 51°16.473 2°52.747 155.5 8.5 159.2 7.9
2003-02-13 14:41:32 51°16.356 2°52.861 139.3 8.1 143.6 8.3
2003-02-13 14:42:32 51°16.248 2°52.992 139.3 8.2 142.8 8.3
2003-02-13 14:43:32 51°16.139 2°53.121 139.3 8.2 143.1 8.2
2003-02-13 14:44:32 51°16.031 2°53.247 139.6 7.5 144.4 7.9
2003-02-13 14:45:32 51°15.949 2°53.338 139.2 5.5 147.1 7.7
2003-02-13 14:46:32 51°15.878 2°53.407 139.3 4.8 149.2 7.5
2003-02-13 14:47:32 51°15.81 2°53.469 140.1 4.7 151.1 7.3
2003-02-13 14:48:32 51°15.742 2°53.524 140.7 4.5 153.2 7.2
2003-02-13 14:49:32 51°15.676 2°53.579 140.2 4.4 152.6 7.1
2003-02-13 14:50:32 51°15.611 2°53.634 140.2 4.4 152.9 6.7
2003-02-13 14:51:32 51°15.545 2°53.686 140 4.4 153.4 6.4
2003-02-13 14:52:32 51°15.462 2°53.766 140.7 8.2 145.7 6
2003-02-13 14:53:32 51°15.316 2°53.932 140.8 11.6 143.9 5.3
2003-02-13 14:54:32 51°15.157 2°54.114 142.8 11.8 145.1 4.6
2003-02-13 14:55:32 51°14.995 2°54.295 142.8 11.8 144.9 4.2
2003-02-13 14:56:32 51°14.832 2°54.482 142.5 12.2 145.5 5
2003-02-13 14:57:32 51°14.668 2°54.666 142.2 12.1 144.7 5
2003-02-13 14:58:32 51°14.511 2°54.851 138.9 11.1 142.1 5.4
2003-02-13 14:59:32 51°14.387 2°55.027 135 9.3 135.1 6.1